Albenga, Italy

8:35 PM CEST on September 02, 2015 (GMT +0200)
Casa Ghiglione, Marmoreo | | Change Station
CLOSE
Current Station
Personal Weather Station
Location: Casanova Lerrone, LIGURIA
Elevation: 1043 ft
Nearby Weather Stations

Elev 1043 ft 44.04 °N, 8.06 °E | Updated 41 seconds ago

Clear
Clear
71.2 °F
Feels Like 74 °F
N
3.6
Wind Variable Wind from NNW
Gusts 7.8 mph

Today
High -- | Low -- °F
--% Chance of Precip.
Yesterday
High -- | Low -- °F
Precip. -- in
6:51 AM 8:02 PM
Waning Gibbous, 78% visible
Pressure 29.89 in
Visibility -9999.0 miles
Clouds
Heat Index 74 °F
Dew Point 61 °F
Humidity 70%
Rainfall 0.00 in
Snow Depth Not available.
UV 0.0 out of 12
Pollen Not available.
Air Quality Not available.
Flu Activity Not available.
METAR LIMU 021755Z 22012KT CAVOK 24/19 Q1012 RMK SCT FEW080 SCT200 QUK 2 QUL 1 S VIS MAR 30 KM VIS MIN 9999
Pressure 29.89 in
Visibility -9999.0 miles
Clouds
Heat Index 74 °F
Dew Point 61 °F
Humidity 70%
Rainfall 0.00 in
Snow Depth Not available.
UV 0.0 out of 12
Pollen Not available.
Air Quality Not available.
Flu Activity Not available.
METAR LIMU 021755Z 22012KT CAVOK 24/19 Q1012 RMK SCT FEW080 SCT200 QUK 2 QUL 1 S VIS MAR 30 KM VIS MIN 9999

10-Day Weather Forecast

×

Almanac

Astronomy

Sep. 02, 2015 Rise Set
Actual Time
Civil Twilight
Nautical Twilight
Astronomical Twilight
Moon
Length of Visible Light
Length of Day
Tomorrow will be .
, % of the Moon is Illuminated

Today's Extremes

Country Highs Country Lows

Community

WunderPhotos

Upload Photos

1,851,793 photos uploaded!

WunderBlogs® & News

Nearby

Air Quality

  Air Quality AQ Index Pollutant
Not available.

Snow Depth

Station Depth Elevation

Earthquake Activity

City Distance Mag. Time & Date
Minimum magnitude displayed is 2.5.

Coastal Water Temperatures

Place Temperature

Stations

Nearby Weather Stations

Station Location Temp. Windchill Dew Point Humidity Wind Precip. Elev Updated Type